Time;durP1;ratioP1;P1;durP2;ratioP2;P2;SDS_P1;SDS_P2;PMS_P1;PMS_P2;Temp;Humidity;BMP_temperature;BMP_pressure;BME280_temperature;BME280_humidity;BME280_pressure;Samples;Min_cycle;Max_cycle;Signal;HPM_P1;HPM_P2
2023/01/01 00:00:39;;;;;;;8.33;4.30;;;15.40;99.90;;;;;;5056860;28;20721;-46
2023/01/01 00:03:04;;;;;;;7.10;3.70;;;15.50;99.90;;;;;;5056385;28;20344;-47
2023/01/01 00:05:30;;;;;;;10.70;3.93;;;15.50;99.90;;;;;;5056428;28;20255;-47
2023/01/01 00:07:55;;;;;;;11.70;3.00;;;15.50;99.90;;;;;;5056080;28;20256;-48
2023/01/01 00:10:27;;;;;;;5.93;2.87;;;15.40;99.90;;;;;;5055996;28;20222;-46
2023/01/01 00:12:53;;;;;;;6.57;3.00;;;15.40;99.90;;;;;;5056130;28;20208;-47
2023/01/01 00:15:18;;;;;;;6.47;3.00;;;15.40;99.90;;;;;;5056050;28;20184;-48
2023/01/01 00:17:44;;;;;;;5.77;2.10;;;15.40;99.90;;;;;;5056135;28;20515;-49
2023/01/01 00:20:10;;;;;;;7.10;2.40;;;15.30;99.90;;;;;;5056100;28;20179;-47
2023/01/01 00:22:36;;;;;;;4.27;2.30;;;15.30;99.90;;;;;;5055631;28;20257;-49
2023/01/01 00:25:02;;;;;;;3.13;2.07;;;15.30;99.90;;;;;;5055747;28;20245;-47
2023/01/01 00:27:28;;;;;;;4.97;2.30;;;15.30;99.90;;;;;;5056182;28;20221;-48
2023/01/01 00:29:54;;;;;;;8.17;2.20;;;15.20;99.90;;;;;;5055689;28;20263;-47
2023/01/01 00:32:19;;;;;;;9.47;2.40;;;15.10;99.90;;;;;;5055568;28;20222;-48
2023/01/01 00:34:45;;;;;;;7.47;2.13;;;15.10;99.90;;;;;;5055820;28;20270;-48
2023/01/01 00:37:10;;;;;;;5.27;1.97;;;15.00;99.90;;;;;;5055538;28;20172;-48
2023/01/01 00:39:36;;;;;;;7.03;2.27;;;15.00;99.90;;;;;;5055963;28;20179;-49
2023/01/01 00:42:01;;;;;;;3.63;1.70;;;14.90;99.90;;;;;;5055388;28;20200;-47
2023/01/01 00:44:27;;;;;;;5.10;2.10;;;14.90;99.90;;;;;;5055666;28;20180;-46
2023/01/01 00:46:52;;;;;;;3.30;1.67;;;14.90;99.90;;;;;;5055422;28;20181;-48
2023/01/01 00:49:18;;;;;;;6.40;2.20;;;14.80;99.90;;;;;;5055367;28;20177;-47
2023/01/01 00:51:44;;;;;;;6.90;2.00;;;14.80;99.90;;;;;;5055231;28;20701;-48
2023/01/01 00:54:09;;;;;;;6.40;1.87;;;14.80;99.90;;;;;;5055281;28;20706;-46
2023/01/01 00:56:35;;;;;;;6.17;2.20;;;14.70;99.90;;;;;;5055388;28;20697;-47
2023/01/01 00:59:00;;;;;;;4.00;1.90;;;14.60;99.90;;;;;;5055374;28;20168;-45
2023/01/01 01:01:26;;;;;;;9.20;2.20;;;14.60;99.90;;;;;;5054262;28;20220;-47
2023/01/01 01:03:51;;;;;;;4.07;2.23;;;14.50;99.90;;;;;;5054903;28;20239;-48
2023/01/01 01:06:17;;;;;;;7.03;3.17;;;14.50;99.90;;;;;;5055133;28;20534;-47
2023/01/01 01:08:45;;;;;;;6.90;1.90;;;14.40;99.90;;;;;;5055216;28;20269;-47
2023/01/01 01:11:19;;;;;;;5.63;1.70;;;14.40;99.90;;;;;;5054792;28;20691;-46
2023/01/01 01:13:47;;;;;;;4.00;1.63;;;14.40;99.90;;;;;;5055147;28;20207;-45
2023/01/01 01:16:14;;;;;;;4.90;1.50;;;14.40;99.90;;;;;;5055463;28;20636;-46
2023/01/01 01:18:40;;;;;;;5.87;1.83;;;14.40;99.90;;;;;;5054834;28;20180;-46
2023/01/01 01:21:06;;;;;;;4.10;1.63;;;14.40;99.90;;;;;;5054833;28;20223;-46
2023/01/01 01:23:32;;;;;;;4.63;1.80;;;14.40;99.90;;;;;;5054481;28;20283;-45
2023/01/01 01:26:19;;;;;;;2.10;1.50;;;14.40;99.90;;;;;;5054916;28;20569;-48
2023/01/01 01:28:45;;;;;;;8.07;1.50;;;14.40;99.90;;;;;;5054765;28;20762;-47
2023/01/01 01:31:11;;;;;;;5.10;1.60;;;14.30;99.90;;;;;;5054500;28;20192;-46
2023/01/01 01:33:37;;;;;;;5.77;1.77;;;14.30;99.90;;;;;;5054653;28;20198;-45
2023/01/01 01:36:04;;;;;;;3.57;1.43;;;14.30;99.90;;;;;;5054453;28;20708;-45
2023/01/01 01:38:30;;;;;;;9.17;1.27;;;14.20;99.90;;;;;;5054346;28;20263;-48
2023/01/01 01:40:56;;;;;;;6.17;1.60;;;14.20;99.90;;;;;;5054546;28;20204;-47
2023/01/01 01:43:32;;;;;;;2.97;1.43;;;14.20;99.90;;;;;;5054326;28;20204;-46
2023/01/01 01:46:03;;;;;;;4.50;1.63;;;14.20;99.90;;;;;;5054788;28;20535;-46
2023/01/01 01:48:34;;;;;;;10.37;2.17;;;14.10;99.90;;;;;;5054548;28;20712;-46
2023/01/01 01:51:00;;;;;;;4.77;1.40;;;14.10;99.90;;;;;;5055182;28;20203;-46
2023/01/01 01:53:30;;;;;;;5.90;1.37;;;14.20;99.90;;;;;;5055255;28;20291;-45
2023/01/01 01:56:03;;;;;;;3.83;1.57;;;14.20;99.90;;;;;;5054925;28;20267;-47
2023/01/01 01:58:31;;;;;;;1.67;0.97;;;14.30;99.90;;;;;;5054220;28;20620;-48
2023/01/01 02:00:57;;;;;;;6.17;1.77;;;14.30;99.90;;;;;;5053690;28;20251;-46
2023/01/01 02:03:38;;;;;;;5.00;1.40;;;14.30;99.90;;;;;;5053803;28;20258;-46
2023/01/01 02:06:04;;;;;;;4.30;1.40;;;14.30;99.90;;;;;;5054077;28;20207;-47
2023/01/01 02:08:31;;;;;;;1.83;1.20;;;14.20;99.90;;;;;;5054001;28;20180;-47
2023/01/01 02:10:56;;;;;;;4.67;1.10;;;14.20;99.90;;;;;;5053587;28;20726;-47
2023/01/01 02:13:22;;;;;;;2.27;1.40;;;14.20;99.90;;;;;;5052985;28;20192;-48
2023/01/01 02:15:58;;;;;;;5.73;2.00;;;14.20;99.90;;;;;;5053659;28;20184;-49
2023/01/01 02:18:31;;;;;;;5.07;1.33;;;14.10;99.90;;;;;;5053891;28;20199;-46
2023/01/01 02:21:13;;;;;;;3.33;1.50;;;14.20;99.90;;;;;;5053657;28;20207;-48
2023/01/01 02:24:08;;;;;;;2.53;1.43;;;14.20;99.90;;;;;;5053484;28;20219;-47
2023/01/01 02:27:01;;;;;;;4.77;1.50;;;14.20;99.90;;;;;;5053720;28;20157;-46
2023/01/01 02:29:30;;;;;;;4.30;1.20;;;14.10;99.90;;;;;;5053698;28;20168;-48
2023/01/01 02:32:01;;;;;;;5.37;1.40;;;14.10;99.90;;;;;;5053644;28;20196;-46
2023/01/01 02:34:33;;;;;;;6.33;1.40;;;14.00;99.90;;;;;;5053333;28;20175;-50
2023/01/01 02:37:00;;;;;;;3.47;1.20;;;14.10;99.90;;;;;;5053812;28;20161;-49
2023/01/01 02:39:30;;;;;;;2.10;1.20;;;14.10;99.90;;;;;;5053615;28;20187;-48
2023/01/01 02:41:57;;;;;;;4.87;1.13;;;14.10;99.90;;;;;;5053306;28;20200;-49
2023/01/01 02:44:25;;;;;;;5.60;1.67;;;14.10;99.90;;;;;;5053444;28;20295;-49
2023/01/01 02:46:51;;;;;;;7.10;1.47;;;14.10;99.90;;;;;;5035552;28;20558;-50
2023/01/01 02:49:16;;;;;;;6.63;1.77;;;14.10;99.90;;;;;;5053649;28;20254;-49
2023/01/01 02:52:08;;;;;;;6.20;1.53;;;14.10;99.90;;;;;;5053460;28;20214;-50
2023/01/01 02:54:42;;;;;;;2.57;1.10;;;14.10;99.90;;;;;;5055148;23;20565;-45
2023/01/01 02:57:41;;;;;;;5.57;1.27;;;14.10;99.90;;;;;;5033355;28;20691;-47
2023/01/01 03:00:27;;;;;;;4.57;1.50;;;14.10;99.90;;;;;;5033755;28;20161;-44
2023/01/01 03:03:16;;;;;;;2.17;1.30;;;14.10;99.90;;;;;;5033354;28;20216;-45
2023/01/01 03:06:22;;;;;;;6.23;1.60;;;14.10;99.90;;;;;;5032055;28;20172;-45
2023/01/01 03:09:12;;;;;;;5.00;0.97;;;14.10;99.90;;;;;;5033457;28;20161;-46
2023/01/01 03:12:07;;;;;;;2.80;1.27;;;14.10;99.90;;;;;;5033163;28;20197;-48
2023/01/01 03:14:47;;;;;;;3.83;1.20;;;14.10;99.90;;;;;;5033102;28;20180;-45
2023/01/01 03:17:44;;;;;;;2.37;1.13;;;14.20;99.90;;;;;;5033458;28;20173;-45
2023/01/01 03:20:20;;;;;;;4.43;1.30;;;14.30;99.90;;;;;;5008868;28;20197;-45
2023/01/01 03:22:50;;;;;;;3.80;1.23;;;14.30;99.90;;;;;;5033031;28;20200;-46
2023/01/01 03:25:24;;;;;;;3.90;1.27;;;14.30;99.90;;;;;;5036551;28;20165;-46
2023/01/01 03:28:03;;;;;;;7.53;1.40;;;14.30;99.90;;;;;;5037217;28;20175;-44
2023/01/01 03:30:31;;;;;;;7.27;1.70;;;14.20;99.90;;;;;;5036924;28;20157;-44
2023/01/01 03:33:02;;;;;;;6.40;1.10;;;14.10;99.90;;;;;;5036799;28;20292;-46
2023/01/01 03:35:41;;;;;;;4.37;1.40;;;14.10;99.90;;;;;;5037300;28;20157;-43
2023/01/01 03:38:16;;;;;;;5.57;1.40;;;14.10;99.90;;;;;;5037361;28;20164;-46
2023/01/01 03:40:45;;;;;;;3.57;1.50;;;14.10;99.90;;;;;;5037049;28;20172;-44
2023/01/01 03:43:18;;;;;;;3.33;1.40;;;14.10;99.90;;;;;;5036513;28;20193;-44
2023/01/01 03:45:46;;;;;;;6.37;1.20;;;14.10;99.90;;;;;;5037050;28;20219;-43
2023/01/01 03:48:12;;;;;;;5.23;1.83;;;14.10;99.90;;;;;;5036598;28;20185;-44
2023/01/01 03:50:57;;;;;;;5.37;1.50;;;14.10;99.90;;;;;;5036715;28;20177;-45
2023/01/01 03:53:39;;;;;;;5.83;1.30;;;14.10;99.90;;;;;;5036802;28;20173;-43
2023/01/01 03:56:18;;;;;;;7.93;1.63;;;14.10;99.90;;;;;;5035123;28;20208;-44
2023/01/01 03:58:50;;;;;;;6.43;1.47;;;14.10;99.90;;;;;;5037016;28;20161;-46
2023/01/01 04:01:41;;;;;;;3.13;1.33;;;14.10;99.90;;;;;;5036535;28;20259;-45
2023/01/01 04:04:07;;;;;;;8.23;1.70;;;14.10;99.90;;;;;;5029157;28;20219;-45
2023/01/01 04:06:33;;;;;;;4.17;1.47;;;14.00;99.90;;;;;;5036235;28;20170;-46
2023/01/01 04:09:01;;;;;;;3.37;1.37;;;14.00;99.90;;;;;;5036227;28;20711;-45
2023/01/01 04:14:29;;;;;;;4.90;1.13;;;14.00;99.90;;;;;;5036564;28;20544;-45
2023/01/01 04:16:58;;;;;;;4.07;1.40;;;14.00;99.90;;;;;;5036365;28;20184;-47
2023/01/01 04:19:24;;;;;;;2.87;1.40;;;14.00;99.90;;;;;;5036061;28;20176;-45
2023/01/01 04:21:50;;;;;;;5.83;1.70;;;14.00;99.90;;;;;;5035915;28;20707;-44
2023/01/01 04:24:15;;;;;;;5.27;1.20;;;14.00;99.90;;;;;;5036058;28;20209;-43
2023/01/01 04:26:41;;;;;;;10.77;1.80;;;14.00;99.90;;;;;;5036244;28;20177;-43
2023/01/01 04:29:06;;;;;;;5.77;1.60;;;14.00;99.90;;;;;;5035914;28;20314;-45
2023/01/01 04:31:34;;;;;;;6.33;1.60;;;13.90;99.90;;;;;;5035687;28;20685;-44
2023/01/01 04:33:59;;;;;;;4.93;1.63;;;13.90;99.90;;;;;;5036220;28;20183;-45
2023/01/01 04:36:25;;;;;;;5.17;1.13;;;13.80;99.90;;;;;;5034645;28;20173;-44
2023/01/01 04:38:50;;;;;;;2.40;1.40;;;13.80;99.90;;;;;;5035599;28;20234;-44
2023/01/01 04:41:16;;;;;;;5.23;1.67;;;13.80;99.90;;;;;;5036056;28;20232;-44
2023/01/01 04:43:45;;;;;;;5.13;1.70;;;13.80;99.90;;;;;;5035515;28;20201;-48
2023/01/01 04:46:10;;;;;;;3.17;1.50;;;13.70;99.90;;;;;;5035682;28;20222;-45
2023/01/01 04:48:36;;;;;;;3.00;1.43;;;13.80;99.90;;;;;;5035881;28;20235;-44
2023/01/01 04:51:03;;;;;;;4.80;1.60;;;13.70;99.90;;;;;;5035474;28;20200;-45
2023/01/01 04:53:32;;;;;;;5.90;1.40;;;13.70;99.90;;;;;;5035675;28;20173;-44
2023/01/01 04:56:05;;;;;;;7.83;2.33;;;13.70;99.90;;;;;;5035782;28;20184;-45
2023/01/01 04:58:32;;;;;;;4.37;1.33;;;13.60;99.90;;;;;;5035946;28;20205;-47
2023/01/01 05:00:57;;;;;;;3.77;1.23;;;13.60;99.90;;;;;;5036618;28;20209;-44
2023/01/01 05:03:23;;;;;;;5.30;1.27;;;13.60;99.90;;;;;;5034834;28;20705;-44
2023/01/01 05:05:59;;;;;;;5.27;1.70;;;13.60;99.90;;;;;;5035954;28;20543;-44
2023/01/01 05:08:26;;;;;;;6.33;2.03;;;13.60;99.90;;;;;;5036423;28;20564;-45
2023/01/01 05:10:51;;;;;;;2.20;1.27;;;13.50;99.90;;;;;;5035713;28;20201;-44
2023/01/01 05:13:17;;;;;;;3.40;1.47;;;13.60;99.90;;;;;;5036209;28;20208;-47
2023/01/01 05:15:43;;;;;;;3.80;1.27;;;13.60;99.90;;;;;;5034543;28;20184;-43
2023/01/01 05:18:08;;;;;;;4.17;1.80;;;13.60;99.90;;;;;;5035582;28;20181;-44
2023/01/01 05:29:07;;;;;;;3.43;1.43;;;13.60;99.90;;;;;;5389064;23;20233;-87
2023/01/01 05:31:34;;;;;;;4.57;1.53;;;13.60;99.90;;;;;;5014301;28;20184;-88
2023/01/01 10:51:25;;;;;;;4.80;1.70;;;13.70;99.90;;;;;;5031910;28;20559;-86
2023/01/01 10:53:51;;;;;;;3.57;1.70;;;13.70;99.90;;;;;;5016030;28;20177;-88
2023/01/01 10:56:22;;;;;;;9.13;2.30;;;13.70;99.90;;;;;;5015810;28;20176;-87
2023/01/01 10:58:53;;;;;;;8.53;2.20;;;13.70;99.90;;;;;;5016002;28;20240;-88
2023/01/01 11:01:23;;;;;;;5.60;1.87;;;13.80;99.90;;;;;;5015836;28;20185;-86
2023/01/01 11:03:53;;;;;;;7.37;2.10;;;13.80;99.90;;;;;;5015869;28;20216;-86
2023/01/01 11:06:31;;;;;;;4.47;1.73;;;14.60;99.90;;;;;;5015821;28;20640;-85
2023/01/01 11:09:02;;;;;;;7.70;1.73;;;13.80;99.90;;;;;;5033504;28;20559;-87
2023/01/01 11:11:58;;;;;;;4.60;2.07;;;13.80;99.90;;;;;;5015906;28;20184;-87
2023/01/01 11:14:24;;;;;;;5.97;1.47;;;13.80;99.90;;;;;;4990639;28;20576;-87
2023/01/01 11:16:50;;;;;;;6.07;1.90;;;13.90;99.90;;;;;;5015799;28;20177;-86
2023/01/01 11:19:37;;;;;;;6.33;2.00;;;13.80;99.90;;;;;;5015626;28;20200;-85
2023/01/01 11:22:04;;;;;;;4.27;1.63;;;13.80;99.90;;;;;;5015645;28;20248;-85
2023/01/01 11:24:32;;;;;;;10.10;1.70;;;13.90;99.90;;;;;;5015597;28;20284;-87
2023/01/01 11:27:21;;;;;;;6.77;1.80;;;13.60;99.90;;;;;;5016118;28;20579;-87
2023/01/01 11:29:47;;;;;;;7.77;2.00;;;13.80;99.90;;;;;;5015524;28;20259;-86
2023/01/01 11:32:29;;;;;;;8.67;2.07;;;13.80;99.90;;;;;;5015525;28;20169;-86
2023/01/01 11:34:59;;;;;;;4.93;1.73;;;13.80;99.90;;;;;;5015654;28;20176;-85
2023/01/01 11:37:38;;;;;;;6.43;1.93;;;13.70;99.90;;;;;;5015493;28;20547;-86
2023/01/01 11:40:13;;;;;;;5.97;1.67;;;13.90;99.90;;;;;;5015783;28;20180;-86
2023/01/01 11:42:57;;;;;;;4.57;2.33;;;13.90;99.90;;;;;;5015993;28;20171;-87
2023/01/01 11:45:37;;;;;;;4.67;1.80;;;13.90;99.90;;;;;;5017376;28;20652;-86
2023/01/01 11:48:15;;;;;;;9.00;2.07;;;13.90;99.90;;;;;;5019439;28;20641;-85
2023/01/01 11:50:52;;;;;;;8.47;2.87;;;13.90;99.90;;;;;;5019585;28;20197;-86
2023/01/01 11:53:30;;;;;;;5.13;1.93;;;14.00;99.90;;;;;;5019525;28;20224;-87
2023/01/01 11:56:15;;;;;;;7.17;2.10;;;14.00;99.90;;;;;;5019045;28;20172;-86
2023/01/01 11:59:02;;;;;;;5.77;1.73;;;14.00;99.90;;;;;;5019077;28;20201;-86
2023/01/01 12:01:40;;;;;;;6.93;2.03;;;14.00;99.90;;;;;;5019287;28;20176;-86
2023/01/01 12:04:15;;;;;;;6.17;1.73;;;14.10;99.90;;;;;;5018955;28;20209;-86
2023/01/01 12:06:45;;;;;;;7.10;2.03;;;14.10;99.90;;;;;;5018901;28;20183;-84
2023/01/01 12:09:20;;;;;;;8.27;2.10;;;14.10;99.90;;;;;;5018802;28;20208;-86
2023/01/01 12:11:55;;;;;;;7.13;1.90;;;14.00;99.90;;;;;;5019018;28;20172;-86
2023/01/01 12:14:27;;;;;;;4.40;1.80;;;14.00;99.90;;;;;;5019129;28;20223;-85
2023/01/01 12:17:11;;;;;;;5.23;1.70;;;14.10;99.90;;;;;;5018773;28;20181;-87
2023/01/01 12:20:09;;;;;;;6.93;1.93;;;14.00;99.90;;;;;;5018844;28;20216;-86
2023/01/01 12:22:35;;;;;;;6.43;1.93;;;14.00;99.90;;;;;;4992036;28;20193;-86
2023/01/01 12:25:02;;;;;;;5.50;1.70;;;13.90;99.90;;;;;;5018470;28;20231;-86
2023/01/01 12:28:03;;;;;;;7.80;1.90;;;13.90;99.90;;;;;;5018885;28;20177;-86
2023/01/01 12:30:52;;;;;;;8.00;1.87;;;13.90;99.90;;;;;;5018445;28;20173;-87
2023/01/01 12:33:55;;;;;;;5.27;1.77;;;13.90;99.90;;;;;;5018430;28;20200;-87
2023/01/01 12:36:42;;;;;;;6.73;1.90;;;13.90;99.90;;;;;;5018579;28;20223;-84
2023/01/01 12:39:29;;;;;;;6.27;1.70;;;13.90;99.90;;;;;;5018664;28;20295;-87
2023/01/01 12:42:08;;;;;;;4.80;1.70;;;13.90;99.90;;;;;;5019072;28;20647;-88
2023/01/01 12:44:39;;;;;;;7.27;1.90;;;13.90;99.90;;;;;;5018396;28;20205;-87
2023/01/01 12:47:29;;;;;;;8.93;1.80;;;13.80;99.90;;;;;;5018547;28;20165;-86
2023/01/01 12:50:03;;;;;;;3.50;1.63;;;13.80;99.90;;;;;;5018070;28;20739;-88
2023/01/01 12:52:43;;;;;;;6.93;2.30;;;13.80;99.90;;;;;;5020591;28;20164;-87
2023/01/01 12:55:21;;;;;;;6.10;2.03;;;13.80;99.90;;;;;;5024769;28;20169;-87
2023/01/01 12:58:06;;;;;;;5.07;1.60;;;13.80;99.90;;;;;;5027505;28;20718;-87
2023/01/01 13:00:36;;;;;;;5.27;1.90;;;13.80;99.90;;;;;;5019078;28;20169;-86
2023/01/01 13:03:19;;;;;;;6.30;1.90;;;13.70;99.90;;;;;;5018109;28;20185;-87
2023/01/01 13:05:50;;;;;;;10.13;2.13;;;13.70;99.90;;;;;;5035741;28;20157;-86
2023/01/01 13:08:16;;;;;;;7.30;1.80;;;13.70;99.90;;;;;;5018774;28;20204;-86
2023/01/01 13:10:44;;;;;;;11.00;2.53;;;13.70;99.90;;;;;;5021421;28;20165;-88
2023/01/01 13:13:12;;;;;;;7.43;2.33;;;13.70;99.90;;;;;;5018032;28;20552;-87
2023/01/01 13:15:37;;;;;;;6.50;2.13;;;13.80;99.90;;;;;;5018258;28;20687;-87
2023/01/01 13:18:24;;;;;;;4.13;1.50;;;14.00;99.90;;;;;;5017465;28;20205;-87
2023/01/01 13:20:52;;;;;;;10.63;2.00;;;13.70;99.90;;;;;;5017793;28;20168;-87
2023/01/01 13:23:30;;;;;;;9.47;1.90;;;14.20;99.90;;;;;;5017273;28;20294;-85
2023/01/01 13:26:17;;;;;;;5.53;1.70;;;13.70;99.90;;;;;;5018060;28;20169;-85
2023/01/01 13:28:58;;;;;;;8.17;1.80;;;13.70;99.90;;;;;;5017481;28;20204;-86
2023/01/01 13:31:39;;;;;;;8.77;2.07;;;13.60;99.90;;;;;;5017378;28;20176;-86
2023/01/01 13:34:30;;;;;;;8.97;3.03;;;13.70;99.90;;;;;;5017349;28;20231;-86
2023/01/01 13:37:13;;;;;;;6.67;2.30;;;13.60;99.90;;;;;;5017631;28;20629;-86
2023/01/01 13:39:57;;;;;;;6.63;1.80;;;13.60;99.90;;;;;;5018086;28;20209;-87
2023/01/01 13:42:41;;;;;;;6.30;2.10;;;13.60;99.90;;;;;;5017367;28;20371;-86
2023/01/01 13:45:29;;;;;;;7.87;2.07;;;13.70;99.90;;;;;;5016979;28;20771;-85
2023/01/01 13:48:24;;;;;;;6.10;1.73;;;13.60;99.90;;;;;;5017213;28;20248;-87
2023/01/01 13:51:22;;;;;;;7.07;2.37;;;13.60;99.90;;;;;;5016933;28;20212;-86
2023/01/01 13:54:18;;;;;;;5.27;2.33;;;13.60;99.90;;;;;;5034730;28;20165;-86
2023/01/01 13:57:18;;;;;;;7.77;1.90;;;13.50;99.90;;;;;;5017101;28;20173;-85
2023/01/01 14:00:13;;;;;;;7.30;2.07;;;13.60;99.90;;;;;;4991636;28;20280;-85
2023/01/01 14:02:57;;;;;;;7.33;2.47;;;13.60;99.90;;;;;;5000028;28;20193;-87
2023/01/01 14:05:33;;;;;;;5.57;1.70;;;13.50;99.90;;;;;;5016771;28;20177;-86
2023/01/01 14:07:59;;;;;;;6.37;2.03;;;13.60;99.90;;;;;;5016842;28;20200;-87
2023/01/01 14:10:32;;;;;;;6.07;1.90;;;13.50;99.90;;;;;;5016750;28;20173;-87
2023/01/01 14:13:15;;;;;;;5.37;2.17;;;13.60;99.90;;;;;;5016644;28;20232;-86
2023/01/01 14:15:56;;;;;;;5.90;2.03;;;14.20;99.90;;;;;;5016845;28;20256;-84
2023/01/01 14:18:32;;;;;;;8.20;2.10;;;13.90;99.90;;;;;;5016632;28;20292;-87
2023/01/01 14:20:57;;;;;;;7.60;1.80;;;13.20;99.90;;;;;;5016501;28;20188;-85
2023/01/01 14:23:35;;;;;;;7.43;2.10;;;14.40;99.90;;;;;;5016473;28;20240;-86
2023/01/01 14:26:05;;;;;;;7.23;1.97;;;13.40;99.90;;;;;;5016240;28;20592;-85
2023/01/01 14:28:32;;;;;;;5.73;1.73;;;13.40;99.90;;;;;;5016559;28;20271;-87
2023/01/01 14:31:01;;;;;;;6.20;1.90;;;13.30;99.90;;;;;;5016224;28;20177;-87
2023/01/01 14:33:32;;;;;;;4.97;1.70;;;13.50;99.90;;;;;;5016412;28;20186;-86
2023/01/01 14:36:03;;;;;;;6.67;2.00;;;13.10;99.90;;;;;;5016435;28;20271;-86
2023/01/01 14:38:30;;;;;;;6.53;1.67;;;13.30;99.90;;;;;;5016209;28;20211;-88
2023/01/01 14:41:02;;;;;;;4.90;1.77;;;13.50;99.90;;;;;;5016108;28;20271;-86
2023/01/01 14:43:27;;;;;;;7.53;1.77;;;13.20;99.90;;;;;;5016102;28;20212;-86
2023/01/01 14:45:54;;;;;;;4.47;1.80;;;13.00;99.90;;;;;;5016109;28;20244;-85
2023/01/01 14:48:20;;;;;;;8.30;1.60;;;13.20;99.90;;;;;;5016283;28;20196;-86
2023/01/01 14:50:48;;;;;;;4.57;1.63;;;13.10;99.90;;;;;;5016136;28;20203;-86
2023/01/01 14:53:19;;;;;;;2.97;1.70;;;13.50;99.90;;;;;;5016668;28;20711;-86
2023/01/01 14:55:47;;;;;;;7.30;1.70;;;13.10;99.90;;;;;;5016167;28;20203;-86
2023/01/01 14:58:19;;;;;;;6.33;1.70;;;12.90;99.90;;;;;;5015937;28;20603;-86
2023/01/01 15:00:45;;;;;;;3.90;1.40;;;13.00;99.90;;;;;;5033726;28;20227;-85
2023/01/01 15:03:18;;;;;;;3.93;1.43;;;13.00;99.90;;;;;;5016572;28;20652;-89
2023/01/01 15:05:45;;;;;;;4.30;1.43;;;12.90;99.90;;;;;;5017011;28;20165;-87
2023/01/01 15:08:22;;;;;;;3.07;1.10;;;13.10;99.90;;;;;;5016787;28;20200;-84
2023/01/01 15:10:49;;;;;;;3.33;1.40;;;12.90;99.90;;;;;;5016758;28;20223;-86
2023/01/01 15:13:18;;;;;;;2.53;1.27;;;13.90;99.90;;;;;;5016223;28;20185;-86
2023/01/01 15:15:47;;;;;;;6.93;1.30;;;12.90;99.90;;;;;;5017064;28;20181;-88
2023/01/01 15:18:39;;;;;;;7.47;1.43;;;12.80;99.90;;;;;;5016898;28;20204;-87
2023/01/01 15:21:10;;;;;;;5.77;1.00;;;12.80;99.90;;;;;;5022486;28;20760;-86
2023/01/01 15:23:37;;;;;;;1.87;1.10;;;12.70;99.90;;;;;;5063024;23;20228;-46
2023/01/01 15:26:09;;;;;;;6.07;1.50;;;12.70;99.90;;;;;;5057437;28;20176;-45
2023/01/01 15:28:37;;;;;;;3.47;1.10;;;12.60;99.90;;;;;;5057465;28;20192;-46
2023/01/01 15:31:03;;;;;;;3.97;1.17;;;12.60;99.90;;;;;;5057564;28;20200;-44
2023/01/01 15:33:28;;;;;;;3.10;1.00;;;12.60;99.90;;;;;;5057192;28;20180;-45
2023/01/01 15:35:59;;;;;;;2.33;1.00;;;12.50;99.90;;;;;;5056759;28;20640;-44
2023/01/01 15:38:33;;;;;;;4.40;1.23;;;12.50;99.90;;;;;;5057035;28;20176;-45
2023/01/01 15:41:00;;;;;;;4.10;1.20;;;12.40;99.90;;;;;;5056897;28;20203;-46
2023/01/01 15:43:29;;;;;;;4.73;1.33;;;12.40;99.90;;;;;;5056657;28;20211;-47
2023/01/01 15:46:18;;;;;;;11.37;1.63;;;12.40;99.90;;;;;;5056686;28;20652;-46
2023/01/01 15:48:51;;;;;;;3.80;1.07;;;12.30;99.90;;;;;;5056923;28;20658;-45
2023/01/01 15:51:21;;;;;;;2.77;0.90;;;12.30;99.90;;;;;;5056580;28;20287;-46
2023/01/01 15:54:03;;;;;;;2.40;0.87;;;12.20;99.90;;;;;;5057057;28;20176;-45
2023/01/01 15:56:32;;;;;;;1.60;0.93;;;12.20;99.90;;;;;;5056744;28;20180;-45
2023/01/01 15:59:01;;;;;;;4.00;0.97;;;12.10;99.90;;;;;;5056809;28;20168;-46
2023/01/01 16:01:30;;;;;;;1.93;1.13;;;12.10;99.90;;;;;;5056417;28;20265;-46
2023/01/01 16:04:12;;;;;;;2.03;1.00;;;12.10;99.90;;;;;;5056210;28;20227;-46
2023/01/01 16:06:49;;;;;;;2.30;0.70;;;12.00;99.90;;;;;;5056618;28;20164;-46
2023/01/01 16:09:16;;;;;;;3.90;1.23;;;12.00;99.90;;;;;;5056675;28;20156;-49
2023/01/01 16:11:42;;;;;;;2.57;0.90;;;12.00;99.90;;;;;;5057011;28;20334;-51
2023/01/01 16:14:08;;;;;;;1.47;0.87;;;12.00;99.90;;;;;;5056667;28;20176;-50
2023/01/01 16:16:36;;;;;;;4.00;1.17;;;11.90;99.90;;;;;;5056740;28;20549;-49
2023/01/01 16:27:27;;;;;;;2.87;1.67;;;11.70;99.90;;;;;;5073137;28;20215;-51
2023/01/01 16:29:53;;;;;;;3.07;1.27;;;11.70;99.90;;;;;;5076312;28;20634;-46
2023/01/01 16:32:18;;;;;;;3.50;1.20;;;11.70;99.90;;;;;;5074651;28;20581;-51
2023/01/01 16:34:44;;;;;;;2.47;1.33;;;11.70;99.90;;;;;;5075671;28;20172;-43
2023/01/01 16:37:09;;;;;;;4.13;1.20;;;11.60;99.90;;;;;;5057952;28;20175;-44
2023/01/01 16:39:35;;;;;;;5.13;1.30;;;11.60;99.90;;;;;;5075693;28;20175;-46
2023/01/01 16:42:00;;;;;;;8.37;1.30;;;11.60;99.90;;;;;;5075721;28;20685;-47
2023/01/01 16:44:26;;;;;;;5.77;1.30;;;11.60;99.90;;;;;;5075510;28;20200;-45
2023/01/01 16:46:51;;;;;;;2.40;1.17;;;11.50;99.90;;;;;;5076127;28;20168;-45
2023/01/01 16:49:17;;;;;;;2.57;1.00;;;11.50;99.90;;;;;;5057466;28;20190;-44
2023/01/01 16:51:43;;;;;;;3.07;1.33;;;11.50;99.90;;;;;;5075452;28;20195;-44
2023/01/01 16:54:08;;;;;;;4.07;1.10;;;11.40;99.90;;;;;;5075868;28;20175;-45
2023/01/01 16:56:34;;;;;;;3.07;1.23;;;11.40;99.90;;;;;;5075467;28;20665;-45
2023/01/01 16:58:59;;;;;;;1.90;1.10;;;11.40;99.90;;;;;;5075570;28;20541;-45
2023/01/01 17:01:25;;;;;;;3.70;1.27;;;11.40;99.90;;;;;;5075155;28;20191;-47
2023/01/01 17:03:51;;;;;;;2.53;1.27;;;11.40;99.90;;;;;;5075841;28;20282;-46
2023/01/01 17:06:17;;;;;;;5.33;1.77;;;11.40;99.90;;;;;;5075262;28;20294;-44
2023/01/01 17:08:42;;;;;;;2.77;1.33;;;11.40;99.90;;;;;;5075168;28;20176;-47
2023/01/01 17:11:15;;;;;;;2.70;1.40;;;11.40;99.90;;;;;;5075368;28;20254;-45
2023/01/01 17:13:42;;;;;;;3.07;1.37;;;11.30;99.90;;;;;;5075513;28;20160;-46
2023/01/01 17:16:09;;;;;;;5.93;1.90;;;11.30;99.90;;;;;;5075455;28;20176;-44
2023/01/01 17:18:35;;;;;;;3.83;1.77;;;11.30;99.90;;;;;;5075418;28;20202;-45
2023/01/01 17:21:09;;;;;;;6.73;1.77;;;11.30;99.90;;;;;;5074996;28;20594;-46
2023/01/01 17:23:40;;;;;;;2.00;1.40;;;11.30;99.90;;;;;;5075650;28;20196;-45
2023/01/01 17:26:14;;;;;;;5.60;2.10;;;11.30;99.90;;;;;;5075353;28;20242;-43
2023/01/01 17:28:40;;;;;;;4.60;2.17;;;11.30;99.90;;;;;;5075458;28;20160;-44
2023/01/01 17:31:07;;;;;;;4.23;1.77;;;11.30;99.90;;;;;;5075445;28;20191;-45
2023/01/01 17:33:33;;;;;;;3.40;1.30;;;11.20;99.90;;;;;;5075525;28;20245;-45
2023/01/01 17:36:00;;;;;;;2.60;1.70;;;11.20;99.90;;;;;;5074604;28;20183;-43
2023/01/01 17:38:26;;;;;;;5.17;1.57;;;11.20;99.90;;;;;;5074796;28;20210;-44
2023/01/01 17:40:52;;;;;;;3.77;1.53;;;11.20;99.90;;;;;;5075121;28;20184;-46
2023/01/01 17:43:18;;;;;;;2.90;1.80;;;11.20;99.90;;;;;;5074334;28;20651;-45
2023/01/01 17:45:47;;;;;;;3.03;1.43;;;11.20;99.90;;;;;;5075226;28;20221;-44
2023/01/01 17:48:12;;;;;;;8.83;2.10;;;11.10;99.90;;;;;;5074906;28;20537;-45
2023/01/01 17:50:38;;;;;;;5.17;2.07;;;11.10;99.90;;;;;;5074701;28;20259;-45
2023/01/01 17:53:04;;;;;;;3.27;1.60;;;11.10;99.90;;;;;;5074881;28;20538;-46
2023/01/01 17:55:29;;;;;;;5.30;2.07;;;11.10;99.90;;;;;;5074728;28;20171;-46
2023/01/01 17:57:55;;;;;;;2.50;1.57;;;11.10;99.90;;;;;;5074540;28;20638;-45
2023/01/01 18:00:20;;;;;;;4.20;1.80;;;11.10;99.90;;;;;;5074190;28;20566;-45
2023/01/01 18:02:46;;;;;;;4.50;2.03;;;11.10;99.90;;;;;;5074328;28;20552;-45
2023/01/01 18:05:11;;;;;;;3.97;1.97;;;11.10;99.90;;;;;;5056056;28;20282;-44
2023/01/01 18:07:37;;;;;;;3.97;1.93;;;11.10;99.90;;;;;;5074105;28;20211;-44
2023/01/01 18:10:04;;;;;;;4.30;2.07;;;11.10;99.90;;;;;;5074337;28;20171;-45
2023/01/01 18:12:29;;;;;;;2.67;1.60;;;11.10;99.90;;;;;;5074265;28;20662;-46
2023/01/01 18:14:55;;;;;;;5.83;1.50;;;11.10;99.90;;;;;;5074802;28;20180;-43
2023/01/01 18:17:20;;;;;;;5.83;1.73;;;11.10;99.90;;;;;;5073825;28;20259;-45
2023/01/01 18:19:46;;;;;;;4.10;1.60;;;11.10;99.90;;;;;;5074115;28;20606;-44
2023/01/01 18:22:12;;;;;;;2.33;1.30;;;11.00;99.90;;;;;;5073816;28;20206;-47
2023/01/01 18:24:37;;;;;;;4.93;1.53;;;11.00;99.90;;;;;;5074272;28;20222;-46
2023/01/01 18:27:03;;;;;;;6.10;1.80;;;11.00;99.90;;;;;;5073939;28;20583;-44
2023/01/01 18:29:28;;;;;;;9.80;2.07;;;11.00;99.90;;;;;;5073778;28;20653;-44
2023/01/01 18:31:54;;;;;;;9.27;1.80;;;11.00;99.90;;;;;;5073837;28;20195;-44
2023/01/01 18:34:20;;;;;;;6.23;1.67;;;11.00;99.90;;;;;;5073675;28;20250;-45
2023/01/01 18:36:45;;;;;;;6.20;2.03;;;11.00;99.90;;;;;;5073772;28;20527;-45
2023/01/01 18:39:21;;;;;;;5.73;1.83;;;11.00;99.90;;;;;;5073524;28;20214;-43
2023/01/01 18:41:59;;;;;;;7.13;2.33;;;11.00;99.90;;;;;;5056159;28;20195;-46
2023/01/01 18:44:29;;;;;;;5.93;1.97;;;11.00;99.90;;;;;;5073636;28;20554;-45
2023/01/01 18:47:13;;;;;;;6.67;2.03;;;11.00;99.90;;;;;;5073396;28;20539;-43